Time;durP1;ratioP1;P1;durP2;ratioP2;P2;SDS_P1;SDS_P2;PMS_P1;PMS_P2;Temp;Humidity;BMP_temperature;BMP_pressure;BME280_temperature;BME280_humidity;BME280_pressure;Samples;Min_cycle;Max_cycle;Signal;HPM_P1;HPM_P2
2023/09/06 00:01:32;;;;;;;;;;;;;;;16.90;43.56;96026.13;5057327;28;19924;-73
2023/09/06 00:03:57;;;;;;;;;;;;;;;17.09;42.01;96026.28;5056871;28;19922;-75
2023/09/06 00:06:23;;;;;;;;;;;;;;;17.07;41.76;96017.63;5057419;28;19912;-73
2023/09/06 00:08:48;;;;;;;;;;;;;;;17.05;41.64;96017.81;5056965;28;19924;-74
2023/09/06 00:11:13;;;;;;;;;;;;;;;16.95;42.11;96023.63;5057289;28;19920;-74
2023/09/06 00:13:38;;;;;;;;;;;;;;;17.12;41.16;96024.06;5056822;28;20556;-74
2023/09/06 00:16:04;;;;;;;;;;;;;;;17.03;42.21;96014.50;5058227;28;19997;-74
2023/09/06 00:18:29;;;;;;;;;;;;;;;16.77;43.23;96008.94;5084647;28;19952;-73
2023/09/06 00:20:54;;;;;;;;;;;;;;;16.92;42.22;96005.22;5088557;28;20012;-72
2023/09/06 00:23:20;;;;;;;;;;;;;;;16.96;41.43;96003.75;5056818;28;20015;-74
2023/09/06 00:25:45;;;;;;;;;;;;;;;17.00;41.70;96005.00;5072085;28;19927;-74
2023/09/06 00:28:12;;;;;;;;;;;;;;;16.99;42.48;95999.81;5056475;28;20716;-73
2023/09/06 00:30:37;;;;;;;;;;;;;;;17.09;41.44;95989.47;5061875;28;19920;-75
2023/09/06 00:33:03;;;;;;;;;;;;;;;17.20;40.66;95998.78;5056184;28;19920;-72
2023/09/06 00:35:29;;;;;;;;;;;;;;;17.24;40.06;95994.63;5056731;28;19967;-74
2023/09/06 00:37:54;;;;;;;;;;;;;;;17.27;41.02;96006.84;5056579;28;20017;-75
2023/09/06 00:40:21;;;;;;;;;;;;;;;17.29;40.63;95999.38;5052593;28;19946;-75
2023/09/06 00:42:46;;;;;;;;;;;;;;;17.21;41.08;96005.00;5088149;28;19923;-75
2023/09/06 00:45:12;;;;;;;;;;;;;;;17.10;40.87;95995.69;5057768;28;19924;-72
2023/09/06 00:47:37;;;;;;;;;;;;;;;16.96;41.72;95998.38;5088896;28;19917;-75
2023/09/06 00:50:03;;;;;;;;;;;;;;;16.65;41.28;95994.50;5062059;28;19971;-75
2023/09/06 00:52:28;;;;;;;;;;;;;;;16.56;42.56;95993.91;5066832;28;20717;-74
2023/09/06 00:54:53;;;;;;;;;;;;;;;16.62;42.14;96000.28;5071512;28;19924;-74
2023/09/06 00:57:19;;;;;;;;;;;;;;;16.61;42.40;95995.94;5088351;28;19928;-73
2023/09/06 00:59:45;;;;;;;;;;;;;;;16.38;42.58;95987.28;5056384;28;20333;-74
2023/09/06 01:02:10;;;;;;;;;;;;;;;16.59;42.03;95984.59;5088593;28;19925;-73
2023/09/06 01:04:35;;;;;;;;;;;;;;;16.54;41.76;95985.22;5048780;22;20014;-78
2023/09/06 01:07:00;;;;;;;;;;;;;;;16.53;43.02;95997.00;4994566;28;19921;-77
2023/09/06 01:09:29;;;;;;;;;;;;;;;16.54;42.59;95995.13;4994281;28;19921;-78
2023/09/06 01:11:54;;;;;;;;;;;;;;;16.61;41.49;95987.88;4994029;28;19964;-77
2023/09/06 01:14:19;;;;;;;;;;;;;;;16.67;41.35;95991.59;4996581;28;20528;-77
2023/09/06 01:16:45;;;;;;;;;;;;;;;16.67;41.11;95997.81;4995720;28;20271;-77
2023/09/06 01:19:14;;;;;;;;;;;;;;;16.73;40.86;95998.84;4990262;28;20044;-77
2023/09/06 01:21:58;;;;;;;;;;;;;;;16.65;41.26;95999.88;4994305;28;20380;-77
2023/09/06 01:24:24;;;;;;;;;;;;;;;16.72;42.01;95992.63;4995433;28;20235;-77
2023/09/06 01:26:49;;;;;;;;;;;;;;;16.58;42.41;95993.66;4994544;28;20395;-77
2023/09/06 01:29:15;;;;;;;;;;;;;;;16.66;42.20;95995.34;4976410;28;19931;-77
2023/09/06 01:31:40;;;;;;;;;;;;;;;16.62;41.33;95994.91;4996128;28;19976;-77
2023/09/06 01:34:05;;;;;;;;;;;;;;;16.59;41.85;95998.03;4993839;28;19921;-78
2023/09/06 01:36:31;;;;;;;;;;;;;;;16.54;41.74;95992.44;4991634;28;19960;-76
2023/09/06 01:38:57;;;;;;;;;;;;;;;16.58;41.58;95990.97;4994278;28;20351;-78
2023/09/06 01:41:22;;;;;;;;;;;;;;;16.52;41.25;95990.78;4991028;28;19929;-77
2023/09/06 01:43:50;;;;;;;;;;;;;;;16.50;42.00;95990.19;4993580;28;20008;-78
2023/09/06 01:46:15;;;;;;;;;;;;;;;16.39;41.70;95980.84;4988242;28;20024;-79
2023/09/06 01:48:40;;;;;;;;;;;;;;;16.30;42.36;95984.75;4976946;28;20026;-77
2023/09/06 01:51:08;;;;;;;;;;;;;;;16.25;42.34;95987.25;4995059;28;20257;-77
2023/09/06 01:53:33;;;;;;;;;;;;;;;16.23;42.95;95990.13;4999769;28;19921;-76
2023/09/06 01:55:59;;;;;;;;;;;;;;;16.09;42.53;95988.47;4994865;28;19925;-77
2023/09/06 01:58:24;;;;;;;;;;;;;;;16.05;43.34;95989.91;4993643;28;20413;-77
2023/09/06 02:00:49;;;;;;;;;;;;;;;16.02;43.56;95993.81;4994906;28;19972;-77
2023/09/06 02:03:15;;;;;;;;;;;;;;;15.89;43.65;95989.25;4994842;28;19964;-77
2023/09/06 02:05:43;;;;;;;;;;;;;;;15.79;43.07;95994.16;4993520;28;19926;-77
2023/09/06 02:08:09;;;;;;;;;;;;;;;15.82;43.44;95988.41;4992492;28;19932;-77
2023/09/06 02:10:34;;;;;;;;;;;;;;;15.79;43.10;95986.13;4993624;28;19917;-77
2023/09/06 02:12:59;;;;;;;;;;;;;;;15.64;44.20;95988.97;4995025;28;19921;-77
2023/09/06 02:15:25;;;;;;;;;;;;;;;15.62;43.85;95983.81;4995897;28;20579;-79
2023/09/06 02:17:50;;;;;;;;;;;;;;;15.57;43.90;95986.28;4994448;28;20429;-79
2023/09/06 02:20:22;;;;;;;;;;;;;;;15.54;44.43;95983.94;4993637;28;20271;-79
2023/09/06 02:22:48;;;;;;;;;;;;;;;15.54;44.34;95981.25;4999573;28;19921;-77
2023/09/06 02:25:13;;;;;;;;;;;;;;;15.37;43.83;95987.00;4996326;28;20648;-78
2023/09/06 02:27:40;;;;;;;;;;;;;;;15.29;44.44;95987.97;4996295;28;20028;-78
2023/09/06 02:30:06;;;;;;;;;;;;;;;15.38;44.79;95988.63;4996065;28;19922;-79
2023/09/06 02:32:32;;;;;;;;;;;;;;;15.43;44.66;95980.81;4978647;28;19983;-78
2023/09/06 02:34:57;;;;;;;;;;;;;;;15.45;44.21;95989.50;4996183;28;19987;-78
2023/09/06 02:37:22;;;;;;;;;;;;;;;15.49;44.57;95988.06;4977911;28;19926;-78
2023/09/06 02:39:48;;;;;;;;;;;;;;;15.54;44.45;95992.00;4991439;28;19924;-78
2023/09/06 02:42:13;;;;;;;;;;;;;;;15.58;44.17;95993.28;4995700;28;20012;-78
2023/09/06 02:44:38;;;;;;;;;;;;;;;15.56;44.17;95995.31;4977143;28;19921;-78
2023/09/06 02:47:04;;;;;;;;;;;;;;;15.59;44.65;95992.25;4994073;28;20032;-77
2023/09/06 02:49:29;;;;;;;;;;;;;;;15.54;44.27;95995.50;4995506;28;20298;-78
2023/09/06 02:51:55;;;;;;;;;;;;;;;15.51;44.05;95995.06;4994687;28;19936;-78
2023/09/06 02:54:21;;;;;;;;;;;;;;;15.59;44.87;95995.78;5000058;28;19917;-78
2023/09/06 02:56:46;;;;;;;;;;;;;;;15.56;44.48;95998.00;4998180;28;19999;-78
2023/09/06 02:59:15;;;;;;;;;;;;;;;15.50;45.33;95996.91;4998599;28;20007;-78
2023/09/06 03:01:44;;;;;;;;;;;;;;;15.52;44.55;95997.56;4995578;28;20175;-78
2023/09/06 03:04:10;;;;;;;;;;;;;;;15.53;44.92;96006.44;4979857;28;19975;-78
2023/09/06 03:06:37;;;;;;;;;;;;;;;15.51;45.09;96005.81;4999608;28;19922;-78
2023/09/06 03:09:12;;;;;;;;;;;;;;;15.45;45.03;95996.69;4980719;28;19967;-78
2023/09/06 03:11:37;;;;;;;;;;;;;;;15.47;44.28;95994.66;4996969;28;19931;-78
2023/09/06 03:14:03;;;;;;;;;;;;;;;15.40;44.81;95993.81;4997493;28;19944;-78
2023/09/06 03:16:32;;;;;;;;;;;;;;;15.45;44.41;95994.03;4996750;28;20430;-77
2023/09/06 03:19:00;;;;;;;;;;;;;;;15.51;44.35;95995.91;4993435;28;20019;-77
2023/09/06 03:21:26;;;;;;;;;;;;;;;15.54;44.28;95989.31;5001119;28;20492;-77
2023/09/06 03:23:52;;;;;;;;;;;;;;;15.47;44.19;96000.84;4996928;28;19925;-78
2023/09/06 03:26:18;;;;;;;;;;;;;;;15.39;44.83;95997.50;4999732;28;20313;-78
2023/09/06 03:28:43;;;;;;;;;;;;;;;15.39;44.87;95992.97;5001090;28;19922;-78
2023/09/06 03:31:13;;;;;;;;;;;;;;;15.27;44.89;95995.41;5003113;28;20020;-78
2023/09/06 03:33:39;;;;;;;;;;;;;;;15.26;45.04;95992.91;5003735;28;19926;-78
2023/09/06 03:36:08;;;;;;;;;;;;;;;15.30;45.25;95999.53;5003785;28;20361;-79
2023/09/06 03:38:34;;;;;;;;;;;;;;;15.32;45.03;95998.31;5003688;28;19917;-79
2023/09/06 03:41:02;;;;;;;;;;;;;;;15.26;45.47;95999.09;5003313;28;19921;-78
2023/09/06 03:43:30;;;;;;;;;;;;;;;15.24;44.83;96007.31;4984844;28;20408;-79
2023/09/06 03:45:58;;;;;;;;;;;;;;;15.21;44.99;96007.75;5001593;28;20030;-78
2023/09/06 03:48:25;;;;;;;;;;;;;;;15.17;45.15;96003.81;5001570;28;20055;-78
2023/09/06 03:50:53;;;;;;;;;;;;;;;15.13;45.50;96004.41;5001862;28;20566;-79
2023/09/06 03:53:18;;;;;;;;;;;;;;;15.13;45.05;96005.19;5006404;28;20573;-77
2023/09/06 03:55:45;;;;;;;;;;;;;;;15.16;45.09;96001.31;5003030;28;19965;-78
2023/09/06 03:58:10;;;;;;;;;;;;;;;15.09;44.61;95998.59;4984784;28;19925;-78
2023/09/06 04:00:39;;;;;;;;;;;;;;;15.03;45.17;96005.56;5001598;28;19971;-78
2023/09/06 04:03:04;;;;;;;;;;;;;;;15.07;45.57;96006.84;5004432;28;19925;-78
2023/09/06 04:05:29;;;;;;;;;;;;;;;15.09;45.66;96003.94;4987176;28;19925;-77
2023/09/06 04:07:58;;;;;;;;;;;;;;;15.08;45.52;96007.66;4985996;28;19944;-78
2023/09/06 04:10:23;;;;;;;;;;;;;;;15.12;45.43;96003.56;5007420;28;19955;-78
2023/09/06 04:12:50;;;;;;;;;;;;;;;15.07;45.45;96008.69;5003636;28;19921;-78
2023/09/06 04:15:16;;;;;;;;;;;;;;;15.04;45.42;96006.41;5003370;28;20733;-77
2023/09/06 04:17:41;;;;;;;;;;;;;;;14.94;45.74;96007.59;5002783;28;20248;-79
2023/09/06 04:20:19;;;;;;;;;;;;;;;14.81;45.74;96007.47;4996260;28;20019;-79
2023/09/06 04:22:45;;;;;;;;;;;;;;;14.76;45.58;96010.78;5003963;28;19932;-78
2023/09/06 04:25:11;;;;;;;;;;;;;;;14.69;45.94;96013.34;5004257;28;20601;-78
2023/09/06 04:27:36;;;;;;;;;;;;;;;14.59;45.79;96020.91;5005580;28;19954;-79
2023/09/06 04:30:03;;;;;;;;;;;;;;;14.58;46.34;96016.56;5001834;28;20028;-77
2023/09/06 04:32:28;;;;;;;;;;;;;;;14.57;46.25;96017.59;5004436;28;19962;-78
2023/09/06 04:34:53;;;;;;;;;;;;;;;14.52;47.14;96025.38;5003588;28;19960;-77
2023/09/06 04:37:18;;;;;;;;;;;;;;;14.42;47.53;96020.34;4998139;28;20156;-78
2023/09/06 04:39:44;;;;;;;;;;;;;;;14.40;46.76;96022.38;4990445;28;20587;-79
2023/09/06 04:42:11;;;;;;;;;;;;;;;14.40;46.86;96025.06;4996461;28;20410;-78
2023/09/06 04:44:36;;;;;;;;;;;;;;;14.35;46.95;96025.66;4996252;28;19957;-78
2023/09/06 04:47:02;;;;;;;;;;;;;;;14.39;47.55;96026.09;4996962;28;19966;-77
2023/09/06 04:49:27;;;;;;;;;;;;;;;14.20;46.92;96029.22;4994660;28;20213;-78
2023/09/06 04:51:52;;;;;;;;;;;;;;;14.14;47.29;96029.97;4994072;28;19937;-78
2023/09/06 04:54:17;;;;;;;;;;;;;;;14.26;48.01;96026.78;5001149;28;19936;-79
2023/09/06 04:56:43;;;;;;;;;;;;;;;14.29;47.27;96029.94;4993957;28;20423;-78
2023/09/06 04:59:08;;;;;;;;;;;;;;;14.33;46.95;96033.88;4996132;28;19968;-78
2023/09/06 05:01:34;;;;;;;;;;;;;;;14.38;47.28;96032.47;4995192;28;20349;-77
2023/09/06 05:04:00;;;;;;;;;;;;;;;14.43;47.24;96038.91;4995171;28;19963;-77
2023/09/06 05:06:25;;;;;;;;;;;;;;;14.44;46.58;96039.72;4994578;28;20476;-77
2023/09/06 05:08:50;;;;;;;;;;;;;;;14.46;47.05;96038.50;4993218;28;19959;-78
2023/09/06 05:11:16;;;;;;;;;;;;;;;14.52;46.99;96046.81;4994140;28;19999;-78
2023/09/06 05:13:41;;;;;;;;;;;;;;;14.54;46.78;96042.91;4976364;28;20323;-78
2023/09/06 05:16:08;;;;;;;;;;;;;;;14.57;46.79;96045.22;4994017;28;20002;-78
2023/09/06 05:18:33;;;;;;;;;;;;;;;14.63;46.79;96045.47;4996479;28;19942;-78
2023/09/06 05:21:02;;;;;;;;;;;;;;;14.62;46.41;96046.50;4997672;28;20105;-78
2023/09/06 05:23:28;;;;;;;;;;;;;;;14.61;46.94;96050.19;4993300;28;20005;-78
2023/09/06 05:25:53;;;;;;;;;;;;;;;14.58;46.53;96040.66;4995523;28;19964;-78
2023/09/06 05:28:18;;;;;;;;;;;;;;;14.53;46.86;96052.00;4976085;28;19952;-78
2023/09/06 05:30:44;;;;;;;;;;;;;;;14.40;46.71;96050.00;4977015;28;19960;-78
2023/09/06 05:33:09;;;;;;;;;;;;;;;14.48;46.99;96049.03;4993722;28;19985;-77
2023/09/06 05:35:35;;;;;;;;;;;;;;;14.55;46.76;96055.28;4991390;28;19937;-78
2023/09/06 05:38:01;;;;;;;;;;;;;;;14.56;47.08;96054.28;4992146;28;19952;-77
2023/09/06 05:40:29;;;;;;;;;;;;;;;14.66;47.08;96056.63;4993251;28;20821;-78
2023/09/06 05:42:54;;;;;;;;;;;;;;;14.72;46.39;96063.88;4995488;28;20661;-78
2023/09/06 05:45:21;;;;;;;;;;;;;;;14.93;46.47;96064.06;4993932;28;20011;-78
2023/09/06 05:47:46;;;;;;;;;;;;;;;15.07;46.31;96065.00;4977042;28;20423;-77
2023/09/06 05:50:11;;;;;;;;;;;;;;;15.24;45.67;96060.16;4994851;28;19937;-77
2023/09/06 05:52:38;;;;;;;;;;;;;;;15.37;45.37;96067.47;4996022;28;19992;-77
2023/09/06 05:55:03;;;;;;;;;;;;;;;15.54;44.92;96064.44;4995264;28;19922;-71
2023/09/06 05:57:29;;;;;;;;;;;;;;;15.74;44.23;96070.75;4973805;28;19930;-71
2023/09/06 05:59:55;;;;;;;;;;;;;;;15.96;44.06;96073.31;4963988;28;20579;-71
2023/09/06 06:02:20;;;;;;;;;;;;;;;16.08;44.23;96070.88;4963553;28;20209;-71
2023/09/06 06:04:45;;;;;;;;;;;;;;;16.13;44.00;96068.41;4971784;28;19984;-71
2023/09/06 06:07:13;;;;;;;;;;;;;;;16.33;43.66;96072.16;4973018;28;19926;-71
2023/09/06 06:09:39;;;;;;;;;;;;;;;16.49;43.10;96077.19;4973545;28;19926;-71
2023/09/06 06:12:04;;;;;;;;;;;;;;;16.65;42.97;96075.13;4970922;28;19925;-72
2023/09/06 06:14:30;;;;;;;;;;;;;;;16.85;42.52;96085.06;4963585;28;19992;-72
2023/09/06 06:16:58;;;;;;;;;;;;;;;17.03;41.70;96087.97;4967554;28;19925;-72
2023/09/06 06:19:23;;;;;;;;;;;;;;;17.18;41.54;96080.72;4984369;28;19928;-72
2023/09/06 06:21:49;;;;;;;;;;;;;;;17.32;41.42;96085.06;4987118;28;20615;-72
2023/09/06 06:24:14;;;;;;;;;;;;;;;17.41;40.92;96088.34;4993360;28;20317;-72
2023/09/06 06:26:39;;;;;;;;;;;;;;;17.64;40.27;96090.56;5003082;28;19955;-72
2023/09/06 06:29:04;;;;;;;;;;;;;;;17.82;39.67;96088.22;5003737;28;19929;-72
2023/09/06 06:31:30;;;;;;;;;;;;;;;17.95;39.82;96088.19;5012010;28;19917;-72
2023/09/06 06:33:55;;;;;;;;;;;;;;;18.04;39.51;96097.69;5009105;28;20075;-72
2023/09/06 06:36:21;;;;;;;;;;;;;;;18.26;38.85;96085.78;5012715;28;20014;-72
2023/09/06 06:38:46;;;;;;;;;;;;;;;18.40;38.80;96098.13;5009856;28;19925;-72
2023/09/06 06:41:22;;;;;;;;;;;;;;;18.60;38.44;96099.91;5009480;28;19936;-72
2023/09/06 06:43:48;;;;;;;;;;;;;;;18.77;37.68;96102.06;5010877;28;19929;-72
2023/09/06 06:46:35;;;;;;;;;;;;;;;18.93;37.66;96085.34;5016664;28;20002;-72
2023/09/06 06:49:02;;;;;;;;;;;;;;;18.98;37.65;96095.47;5007716;28;19933;-72
2023/09/06 06:51:31;;;;;;;;;;;;;;;19.13;37.25;96094.28;5016823;28;19951;-72
2023/09/06 06:53:57;;;;;;;;;;;;;;;19.29;36.76;96098.34;5010664;28;19953;-72
2023/09/06 06:56:22;;;;;;;;;;;;;;;19.41;36.31;96093.03;5016270;28;20141;-72
2023/09/06 06:58:48;;;;;;;;;;;;;;;19.57;36.29;96092.44;5016968;28;20075;-72
2023/09/06 07:01:13;;;;;;;;;;;;;;;19.75;35.85;96098.88;5013483;28;19936;-72
2023/09/06 07:03:38;;;;;;;;;;;;;;;19.80;35.78;96101.75;5010832;28;19933;-72
2023/09/06 07:06:05;;;;;;;;;;;;;;;19.91;35.92;96108.25;5015378;28;19972;-72
2023/09/06 07:08:30;;;;;;;;;;;;;;;20.01;35.59;96109.63;5009765;28;19929;-72
2023/09/06 07:10:55;;;;;;;;;;;;;;;20.15;35.63;96113.00;5014120;28;19991;-72
2023/09/06 07:13:21;;;;;;;;;;;;;;;20.29;35.39;96109.06;5012642;28;19929;-72
2023/09/06 07:15:46;;;;;;;;;;;;;;;20.26;35.62;96114.91;5016820;28;20229;-72
2023/09/06 07:18:12;;;;;;;;;;;;;;;20.39;35.62;96110.41;5014105;28;20433;-72
2023/09/06 07:20:38;;;;;;;;;;;;;;;20.51;34.82;96113.13;5013436;28;19925;-72
2023/09/06 07:23:03;;;;;;;;;;;;;;;20.66;34.59;96110.06;5017283;28;19925;-72
2023/09/06 07:25:28;;;;;;;;;;;;;;;20.73;35.32;96113.47;5015090;28;20381;-72
2023/09/06 07:27:54;;;;;;;;;;;;;;;20.79;35.24;96114.41;5013713;28;20732;-73
2023/09/06 07:30:19;;;;;;;;;;;;;;;20.89;34.62;96111.13;5015951;28;20433;-72
2023/09/06 07:32:44;;;;;;;;;;;;;;;20.94;34.47;96114.78;5014911;28;19965;-72
2023/09/06 07:35:09;;;;;;;;;;;;;;;21.07;34.65;96119.19;5015092;28;19932;-72
2023/09/06 07:37:35;;;;;;;;;;;;;;;21.22;34.72;96120.59;5015814;28;19967;-72
2023/09/06 07:40:00;;;;;;;;;;;;;;;21.33;34.34;96116.28;5014519;28;19994;-72
2023/09/06 07:42:25;;;;;;;;;;;;;;;21.36;33.97;96119.34;5013219;28;19956;-72
2023/09/06 07:44:51;;;;;;;;;;;;;;;21.40;34.27;96116.16;5010639;28;19928;-72
2023/09/06 07:47:17;;;;;;;;;;;;;;;21.51;34.28;96118.03;5015285;28;20494;-72
2023/09/06 07:49:42;;;;;;;;;;;;;;;21.67;34.29;96124.63;5013684;28;19964;-72
2023/09/06 07:52:08;;;;;;;;;;;;;;;21.63;33.94;96127.00;5014992;28;19924;-72
2023/09/06 07:54:33;;;;;;;;;;;;;;;21.80;33.89;96122.72;5012066;28;19936;-72
2023/09/06 07:56:59;;;;;;;;;;;;;;;21.86;33.45;96125.28;5015695;28;19925;-72
2023/09/06 07:59:24;;;;;;;;;;;;;;;22.08;33.36;96119.28;5014482;28;20114;-72
2023/09/06 08:01:49;;;;;;;;;;;;;;;22.07;33.55;96123.06;5013541;28;19929;-72
2023/09/06 08:04:15;;;;;;;;;;;;;;;22.15;33.85;96119.97;5010399;28;19929;-72
2023/09/06 08:06:40;;;;;;;;;;;;;;;22.30;32.97;96126.75;5014457;28;20014;-73
2023/09/06 08:09:05;;;;;;;;;;;;;;;22.45;33.19;96125.38;5013520;28;20007;-72
2023/09/06 08:11:30;;;;;;;;;;;;;;;22.62;32.25;96125.44;5015132;28;19988;-72
2023/09/06 08:13:56;;;;;;;;;;;;;;;22.63;33.02;96127.09;5013755;28;19960;-72
2023/09/06 08:16:22;;;;;;;;;;;;;;;22.78;32.78;96131.97;5013890;28;20391;-72
2023/09/06 08:18:47;;;;;;;;;;;;;;;22.81;32.18;96134.22;5013512;28;19924;-72
2023/09/06 08:21:12;;;;;;;;;;;;;;;22.50;31.66;96133.63;5015184;28;19929;-71
2023/09/06 08:23:38;;;;;;;;;;;;;;;22.72;31.60;96130.22;5012965;28;19921;-72
2023/09/06 08:26:03;;;;;;;;;;;;;;;22.97;31.08;96134.47;5010187;28;20299;-72
2023/09/06 08:28:29;;;;;;;;;;;;;;;22.68;31.58;96131.78;5014284;28;20052;-72
2023/09/06 08:30:54;;;;;;;;;;;;;;;23.03;31.60;96128.03;5012835;28;19921;-72
2023/09/06 08:33:19;;;;;;;;;;;;;;;23.10;31.72;96127.88;5014561;28;19929;-72
2023/09/06 08:35:45;;;;;;;;;;;;;;;23.15;30.65;96126.09;5014320;28;20003;-72
2023/09/06 08:38:10;;;;;;;;;;;;;;;23.04;31.18;96126.97;5014990;28;20102;-71
2023/09/06 08:40:35;;;;;;;;;;;;;;;23.39;30.73;96133.25;5013865;28;20638;-71
2023/09/06 08:43:02;;;;;;;;;;;;;;;23.58;30.98;96127.56;5015021;28;20592;-71
2023/09/06 08:45:27;;;;;;;;;;;;;;;23.74;30.81;96132.16;5005761;28;19932;-72
2023/09/06 08:47:52;;;;;;;;;;;;;;;23.63;30.51;96131.16;5015184;28;19925;-71
2023/09/06 08:50:17;;;;;;;;;;;;;;;24.01;30.18;96131.41;5010468;28;19966;-72
2023/09/06 08:52:43;;;;;;;;;;;;;;;23.87;29.80;96127.41;5017076;28;19932;-72
2023/09/06 08:55:11;;;;;;;;;;;;;;;23.91;29.99;96131.28;5012926;28;20431;-72
2023/09/06 08:57:37;;;;;;;;;;;;;;;23.55;29.62;96128.84;5012868;28;20025;-72
2023/09/06 09:00:03;;;;;;;;;;;;;;;23.78;29.29;96129.75;5011810;28;20258;-72
2023/09/06 09:02:28;;;;;;;;;;;;;;;23.98;29.88;96128.38;5011070;28;19932;-71
2023/09/06 09:04:53;;;;;;;;;;;;;;;24.07;28.80;96132.31;5011045;28;20084;-71
2023/09/06 09:07:18;;;;;;;;;;;;;;;24.16;28.88;96130.78;5012724;28;19933;-71
2023/09/06 09:09:57;;;;;;;;;;;;;;;24.60;27.71;96125.56;5010636;28;19978;-72
2023/09/06 09:12:25;;;;;;;;;;;;;;;24.74;28.42;96139.56;5009398;28;19933;-71
2023/09/06 09:14:50;;;;;;;;;;;;;;;24.78;28.54;96135.25;5014185;28;19921;-72
2023/09/06 09:17:17;;;;;;;;;;;;;;;24.73;28.24;96135.19;5013561;28;20701;-72
2023/09/06 09:19:42;;;;;;;;;;;;;;;24.80;27.88;96133.09;5006587;28;19943;-72
2023/09/06 09:22:07;;;;;;;;;;;;;;;24.93;28.14;96135.44;5011710;28;20460;-72
2023/09/06 09:24:32;;;;;;;;;;;;;;;25.06;27.83;96136.06;5011980;28;20301;-72
2023/09/06 09:26:58;;;;;;;;;;;;;;;25.12;26.27;96145.09;5007002;28;19968;-72
2023/09/06 09:29:23;;;;;;;;;;;;;;;25.06;26.02;96136.91;5013265;28;19928;-72
2023/09/06 09:31:48;;;;;;;;;;;;;;;25.31;26.61;96138.19;5009252;28;20115;-71
2023/09/06 09:34:14;;;;;;;;;;;;;;;25.53;26.16;96136.44;5002401;28;20024;-72
2023/09/06 09:36:39;;;;;;;;;;;;;;;25.47;25.97;96136.44;5011982;28;19957;-71
2023/09/06 09:39:07;;;;;;;;;;;;;;;25.47;25.62;96124.69;5013180;28;20407;-72
2023/09/06 09:41:33;;;;;;;;;;;;;;;25.36;27.03;96137.41;5008123;28;20402;-71
2023/09/06 09:44:12;;;;;;;;;;;;;;;25.40;26.46;96135.78;5009561;28;19929;-71
2023/09/06 09:46:37;;;;;;;;;;;;;;;25.46;25.26;96134.75;5012873;28;20011;-72
2023/09/06 09:49:03;;;;;;;;;;;;;;;25.58;24.73;96137.31;5010131;28;19925;-71
2023/09/06 09:51:28;;;;;;;;;;;;;;;25.61;26.04;96141.41;5010115;28;20114;-72
2023/09/06 09:53:54;;;;;;;;;;;;;;;25.67;26.16;96145.81;5005879;28;19925;-71
2023/09/06 09:56:19;;;;;;;;;;;;;;;25.81;25.73;96139.88;5005074;28;20297;-71
2023/09/06 09:58:44;;;;;;;;;;;;;;;25.97;25.68;96138.84;4999372;28;20374;-72
2023/09/06 10:01:10;;;;;;;;;;;;;;;26.05;24.85;96147.66;5001031;28;20290;-72
2023/09/06 10:03:37;;;;;;;;;;;;;;;26.09;24.52;96146.88;5005404;28;19925;-71
2023/09/06 10:06:03;;;;;;;;;;;;;;;26.12;25.19;96150.97;5005311;28;19936;-71
2023/09/06 10:08:28;;;;;;;;;;;;;;;25.99;24.98;96147.59;5008235;28;20534;-71
2023/09/06 10:10:53;;;;;;;;;;;;;;;25.72;25.19;96137.66;5004824;28;19965;-72
2023/09/06 10:13:19;;;;;;;;;;;;;;;26.21;24.82;96134.91;5002775;28;19933;-70
2023/09/06 10:15:45;;;;;;;;;;;;;;;25.90;25.38;96143.72;5005324;28;19921;-72
2023/09/06 10:18:11;;;;;;;;;;;;;;;25.97;26.77;96135.31;5004785;28;19927;-72
2023/09/06 10:20:36;;;;;;;;;;;;;;;26.25;25.44;96138.75;5006033;28;19925;-73
2023/09/06 10:23:02;;;;;;;;;;;;;;;26.47;25.39;96145.88;5002922;28;20424;-72
2023/09/06 10:25:27;;;;;;;;;;;;;;;26.32;24.62;96143.94;5002464;28;20393;-72
2023/09/06 10:27:53;;;;;;;;;;;;;;;26.43;25.19;96145.63;5003691;28;19925;-74
2023/09/06 10:30:50;;;;;;;;;;;;;;;26.46;23.63;96136.91;5000948;28;20194;-74
2023/09/06 10:33:33;;;;;;;;;;;;;;;26.83;24.55;96132.34;5004134;28;20493;-74
2023/09/06 10:36:02;;;;;;;;;;;;;;;26.57;25.00;96134.19;5002963;28;20022;-73
2023/09/06 10:38:30;;;;;;;;;;;;;;;26.73;24.91;96138.63;5005102;28;20340;-74
2023/09/06 10:41:04;;;;;;;;;;;;;;;26.73;25.06;96138.63;5006324;28;19929;-74
2023/09/06 10:43:29;;;;;;;;;;;;;;;26.77;25.56;96138.88;5003487;28;20761;-74
2023/09/06 10:46:04;;;;;;;;;;;;;;;26.84;24.42;96133.16;5001351;28;19929;-74
2023/09/06 10:48:29;;;;;;;;;;;;;;;27.08;24.72;96135.34;5003706;28;19936;-74
2023/09/06 10:51:07;;;;;;;;;;;;;;;26.74;25.09;96132.06;5007353;28;19925;-74
2023/09/06 10:53:33;;;;;;;;;;;;;;;27.00;24.58;96126.63;5006644;28;19925;-74
2023/09/06 10:56:01;;;;;;;;;;;;;;;26.99;25.26;96124.97;5012289;28;20611;-74
2023/09/06 10:58:27;;;;;;;;;;;;;;;27.30;25.23;96129.66;5012014;28;19913;-74
2023/09/06 11:01:12;;;;;;;;;;;;;;;27.43;24.48;96116.50;5003642;28;19931;-74
2023/09/06 11:03:37;;;;;;;;;;;;;;;27.31;24.71;96123.09;5005488;28;20301;-74
2023/09/06 11:06:04;;;;;;;;;;;;;;;27.46;24.26;96114.03;5003529;28;19926;-73
2023/09/06 11:08:30;;;;;;;;;;;;;;;27.72;24.43;96124.94;5005071;28;19972;-73
2023/09/06 11:11:02;;;;;;;;;;;;;;;27.62;24.67;96114.84;5004248;28;20044;-74
2023/09/06 11:13:29;;;;;;;;;;;;;;;27.92;23.79;96117.78;5000034;28;20003;-73
2023/09/06 11:15:55;;;;;;;;;;;;;;;27.59;23.42;96112.66;5003213;28;20577;-74
2023/09/06 11:18:20;;;;;;;;;;;;;;;28.13;23.99;96110.31;5001039;28;19928;-74
2023/09/06 11:20:48;;;;;;;;;;;;;;;28.32;24.28;96120.66;5006466;28;20020;-74
2023/09/06 11:23:14;;;;;;;;;;;;;;;27.94;23.13;96109.28;5003231;28;19970;-74
2023/09/06 11:25:39;;;;;;;;;;;;;;;28.08;23.23;96113.06;5003609;28;19929;-73
2023/09/06 11:28:21;;;;;;;;;;;;;;;28.24;22.76;96116.56;5002076;28;19921;-74
2023/09/06 11:30:49;;;;;;;;;;;;;;;28.53;23.85;96115.88;5004919;28;20174;-74
2023/09/06 11:33:16;;;;;;;;;;;;;;;28.50;23.10;96115.59;5003680;28;20015;-74
2023/09/06 11:35:44;;;;;;;;;;;;;;;28.66;23.07;96110.91;5005390;28;20388;-74
2023/09/06 11:38:10;;;;;;;;;;;;;;;28.60;23.08;96114.72;5006373;28;20223;-71
2023/09/06 11:40:36;;;;;;;;;;;;;;;28.98;22.44;96104.06;4994523;28;20279;-71
2023/09/06 11:43:05;;;;;;;;;;;;;;;28.62;22.63;96118.81;4998791;28;19927;-70
2023/09/06 11:45:31;;;;;;;;;;;;;;;28.84;22.57;96109.38;5002491;28;19929;-71
2023/09/06 11:47:59;;;;;;;;;;;;;;;29.07;22.54;96101.53;5001025;28;19925;-72
2023/09/06 11:50:24;;;;;;;;;;;;;;;28.71;22.90;96105.38;5001958;28;19999;-71
2023/09/06 11:52:50;;;;;;;;;;;;;;;28.68;22.67;96108.66;5001140;28;19925;-71
2023/09/06 11:55:16;;;;;;;;;;;;;;;28.77;22.78;96098.75;5001941;28;20686;-71
2023/09/06 11:57:46;;;;;;;;;;;;;;;28.69;21.85;96104.84;5004169;28;19928;-71
2023/09/06 12:00:19;;;;;;;;;;;;;;;28.70;22.61;96097.44;5000621;28;19937;-71
2023/09/06 12:02:47;;;;;;;;;;;;;;;28.94;22.32;96092.06;5001729;28;20202;-71
2023/09/06 12:05:14;;;;;;;;;;;;;;;28.56;22.28;96089.84;5000444;28;19933;-72
2023/09/06 12:07:40;;;;;;;;;;;;;;;29.11;23.04;96096.28;5002723;28;19956;-71
2023/09/06 12:10:06;;;;;;;;;;;;;;;29.52;22.45;96089.63;5000852;28;20008;-71
2023/09/06 12:12:41;;;;;;;;;;;;;;;29.42;22.41;96085.91;5006890;28;20027;-71
2023/09/06 12:15:19;;;;;;;;;;;;;;;29.85;21.92;96089.00;5000719;28;19921;-71
2023/09/06 12:17:45;;;;;;;;;;;;;;;29.65;22.02;96085.38;4999390;28;20088;-71
2023/09/06 12:20:21;;;;;;;;;;;;;;;29.57;22.97;96084.09;5005972;28;19928;-71
2023/09/06 12:22:46;;;;;;;;;;;;;;;30.01;21.98;96084.97;5003435;28;20389;-71
2023/09/06 12:25:12;;;;;;;;;;;;;;;30.03;21.78;96088.25;5001531;28;19936;-71
2023/09/06 12:27:37;;;;;;;;;;;;;;;30.00;20.91;96088.00;5005760;28;19983;-72
2023/09/06 12:30:03;;;;;;;;;;;;;;;30.05;22.12;96085.22;5003817;28;19925;-71
2023/09/06 12:32:31;;;;;;;;;;;;;;;30.19;22.15;96077.09;5000947;28;19925;-71
2023/09/06 12:34:56;;;;;;;;;;;;;;;30.26;21.88;96083.03;5000401;28;20217;-72
2023/09/06 12:37:22;;;;;;;;;;;;;;;30.40;21.76;96079.53;5003549;28;20308;-70
2023/09/06 12:39:48;;;;;;;;;;;;;;;30.73;22.22;96082.38;5003139;28;19971;-69
2023/09/06 12:42:14;;;;;;;;;;;;;;;31.10;21.10;96086.16;5003632;28;19974;-69
2023/09/06 12:44:39;;;;;;;;;;;;;;;31.34;20.72;96081.66;4999151;28;20279;-69